Time;durP1;ratioP1;P1;durP2;ratioP2;P2;SDS_P1;SDS_P2;PMS_P1;PMS_P2;Temp;Humidity;BMP_temperature;BMP_pressure;BME280_temperature;BME280_humidity;BME280_pressure;Samples;Min_cycle;Max_cycle;Signal;HPM_P1;HPM_P2
2023/12/05 00:00:39;;;;;;;13.68;8.52;;;;;;;;;;4994495;28;21004;-58
2023/12/05 00:03:05;;;;;;;15.80;9.15;;;;;;;;;;4995270;28;20034;-58
2023/12/05 00:05:31;;;;;;;14.80;9.00;;;;;;;;;;4993089;28;20021;-58
2023/12/05 00:07:57;;;;;;;15.77;9.18;;;;;;;;;;4993853;28;20025;-58
2023/12/05 00:10:23;;;;;;;16.05;9.48;;;;;;;;;;4995085;28;20041;-58
2023/12/05 00:12:49;;;;;;;16.70;9.38;;;;;;;;;;4994685;28;20044;-58
2023/12/05 00:15:15;;;;;;;16.63;9.57;;;;;;;;;;4995302;28;20042;-58
2023/12/05 00:17:41;;;;;;;16.20;9.48;;;;;;;;;;4993841;28;20036;-58
2023/12/05 00:20:07;;;;;;;15.93;10.00;;;;;;;;;;4993134;28;20042;-58
2023/12/05 00:22:33;;;;;;;15.25;9.98;;;;;;;;;;4993772;28;20038;-58
2023/12/05 00:24:59;;;;;;;18.52;11.20;;;;;;;;;;4999420;28;20489;-58
2023/12/05 00:27:25;;;;;;;15.05;10.02;;;;;;;;;;5008638;28;20103;-58
2023/12/05 00:29:51;;;;;;;19.08;10.57;;;;;;;;;;5000604;28;20084;-58
2023/12/05 00:32:17;;;;;;;16.38;9.48;;;;;;;;;;5003427;28;20405;-58
2023/12/05 00:34:47;;;;;;;17.38;10.90;;;;;;;;;;4998684;28;20061;-58
2023/12/05 00:37:13;;;;;;;15.85;10.40;;;;;;;;;;4998357;28;20045;-58
2023/12/05 00:39:39;;;;;;;17.20;10.23;;;;;;;;;;4998449;28;20053;-58
2023/12/05 00:42:05;;;;;;;17.70;10.75;;;;;;;;;;4998393;28;20145;-58
2023/12/05 00:44:32;;;;;;;18.58;10.75;;;;;;;;;;4998820;28;20124;-58
2023/12/05 00:47:03;;;;;;;16.58;10.50;;;;;;;;;;4999892;28;20030;-58
2023/12/05 00:49:29;;;;;;;14.27;9.70;;;;;;;;;;4998119;28;20259;-58
2023/12/05 00:51:55;;;;;;;16.70;10.68;;;;;;;;;;4997971;28;20491;-58
2023/12/05 00:54:22;;;;;;;16.58;10.23;;;;;;;;;;4998397;28;20481;-58
2023/12/05 00:56:48;;;;;;;16.25;10.82;;;;;;;;;;4998017;28;20037;-58
2023/12/05 00:59:15;;;;;;;16.27;10.25;;;;;;;;;;4998570;28;20157;-57
2023/12/05 01:01:41;;;;;;;16.52;9.82;;;;;;;;;;4999495;28;20037;-58
2023/12/05 01:04:07;;;;;;;17.08;10.35;;;;;;;;;;4997555;28;20120;-58
2023/12/05 01:06:33;;;;;;;16.98;10.70;;;;;;;;;;4998218;28;20029;-58
2023/12/05 01:08:59;;;;;;;16.65;10.60;;;;;;;;;;4997722;28;20033;-57
2023/12/05 01:11:25;;;;;;;17.40;11.05;;;;;;;;;;4997627;28;20125;-58
2023/12/05 01:13:51;;;;;;;17.50;10.90;;;;;;;;;;4998200;28;20033;-58
2023/12/05 01:16:17;;;;;;;17.63;11.23;;;;;;;;;;4998082;28;20037;-58
2023/12/05 01:18:43;;;;;;;17.13;10.73;;;;;;;;;;4997736;28;20041;-58
2023/12/05 01:21:09;;;;;;;18.00;11.23;;;;;;;;;;4996855;28;20052;-58
2023/12/05 01:23:35;;;;;;;20.25;12.07;;;;;;;;;;4997615;28;20044;-57
2023/12/05 01:26:01;;;;;;;17.48;11.13;;;;;;;;;;4998623;28;20752;-58
2023/12/05 01:28:28;;;;;;;18.02;11.13;;;;;;;;;;4999528;28;21871;-58
2023/12/05 01:30:54;;;;;;;18.83;11.30;;;;;;;;;;4998886;28;20030;-58
2023/12/05 01:33:20;;;;;;;17.98;10.88;;;;;;;;;;4997592;28;20034;-58
2023/12/05 01:35:46;;;;;;;20.77;12.35;;;;;;;;;;4998131;28;20044;-58
2023/12/05 01:38:12;;;;;;;20.08;11.18;;;;;;;;;;4997087;28;20726;-58
2023/12/05 01:40:38;;;;;;;18.27;11.32;;;;;;;;;;4996941;28;20551;-58
2023/12/05 01:43:04;;;;;;;19.77;11.43;;;;;;;;;;5003637;28;20048;-58
2023/12/05 01:45:30;;;;;;;18.90;11.55;;;;;;;;;;4998492;28;20061;-58
2023/12/05 01:47:56;;;;;;;17.33;11.70;;;;;;;;;;4997752;28;20769;-58
2023/12/05 01:50:24;;;;;;;20.40;12.25;;;;;;;;;;4996684;28;20030;-58
2023/12/05 01:52:52;;;;;;;19.10;11.68;;;;;;;;;;4996077;28;20401;-57
2023/12/05 01:55:18;;;;;;;18.33;11.85;;;;;;;;;;4997524;28;20037;-58
2023/12/05 01:57:47;;;;;;;18.52;10.75;;;;;;;;;;4997017;28;20041;-58
2023/12/05 02:00:13;;;;;;;19.15;12.93;;;;;;;;;;4997749;28;20034;-58
2023/12/05 02:02:40;;;;;;;20.52;11.98;;;;;;;;;;4997887;28;20041;-58
2023/12/05 02:05:06;;;;;;;20.92;12.43;;;;;;;;;;4996759;28;20038;-58
2023/12/05 02:07:33;;;;;;;18.95;11.82;;;;;;;;;;4997056;28;20042;-58
2023/12/05 02:09:59;;;;;;;19.40;11.75;;;;;;;;;;4997252;28;20044;-58
2023/12/05 02:12:25;;;;;;;18.63;11.88;;;;;;;;;;4997545;28;20034;-58
2023/12/05 02:14:51;;;;;;;19.55;11.50;;;;;;;;;;4998127;28;20044;-59
2023/12/05 02:17:38;;;;;;;20.48;12.10;;;;;;;;;;4999235;28;20033;-58
2023/12/05 02:20:14;;;;;;;21.88;12.98;;;;;;;;;;4996026;28;20087;-58
2023/12/05 02:22:49;;;;;;;19.95;11.70;;;;;;;;;;4996196;28;20055;-58
2023/12/05 02:25:24;;;;;;;16.52;10.40;;;;;;;;;;4996456;28;20696;-58
2023/12/05 02:27:51;;;;;;;20.42;12.02;;;;;;;;;;4997975;28;21260;-58
2023/12/05 02:30:17;;;;;;;18.83;12.07;;;;;;;;;;4998251;28;20153;-58
2023/12/05 02:32:43;;;;;;;18.98;12.13;;;;;;;;;;4998408;28;20124;-58
2023/12/05 02:35:11;;;;;;;18.52;11.82;;;;;;;;;;4996380;28;20034;-58
2023/12/05 02:37:55;;;;;;;21.50;12.85;;;;;;;;;;4997097;28;20056;-58
2023/12/05 02:40:26;;;;;;;17.67;11.70;;;;;;;;;;4996274;28;20033;-58
2023/12/05 02:42:52;;;;;;;17.77;10.85;;;;;;;;;;4997854;28;20045;-58
2023/12/05 02:45:21;;;;;;;20.73;12.93;;;;;;;;;;4996548;28;20485;-58
2023/12/05 02:47:51;;;;;;;19.58;12.75;;;;;;;;;;4997550;28;20034;-58
2023/12/05 02:50:20;;;;;;;20.13;12.68;;;;;;;;;;4996144;28;20035;-58
2023/12/05 02:52:46;;;;;;;19.38;12.57;;;;;;;;;;4995724;28;20091;-58
2023/12/05 02:55:12;;;;;;;20.95;11.68;;;;;;;;;;4996096;28;20551;-58
2023/12/05 02:57:38;;;;;;;18.63;11.75;;;;;;;;;;4996579;28;21275;-58
2023/12/05 03:00:06;;;;;;;19.20;12.63;;;;;;;;;;4998628;28;20041;-58
2023/12/05 03:02:32;;;;;;;23.92;13.52;;;;;;;;;;4997060;28;20041;-58
2023/12/05 03:04:58;;;;;;;18.73;12.05;;;;;;;;;;4995996;28;20045;-59
2023/12/05 03:07:24;;;;;;;19.73;12.70;;;;;;;;;;5001491;28;20076;-58
2023/12/05 03:09:50;;;;;;;19.63;12.07;;;;;;;;;;4995909;28;20038;-58
2023/12/05 03:12:16;;;;;;;18.40;12.02;;;;;;;;;;4996757;28;20037;-58
2023/12/05 03:14:42;;;;;;;19.48;12.50;;;;;;;;;;4997292;28;20033;-58
2023/12/05 03:17:08;;;;;;;21.35;13.38;;;;;;;;;;4997321;28;20040;-59
2023/12/05 03:19:34;;;;;;;18.80;12.18;;;;;;;;;;4996239;28;20112;-59
2023/12/05 03:22:00;;;;;;;21.73;13.50;;;;;;;;;;4995784;28;20120;-59
2023/12/05 03:24:26;;;;;;;19.77;12.50;;;;;;;;;;4996981;28;20786;-59
2023/12/05 03:26:52;;;;;;;21.27;13.75;;;;;;;;;;4994702;28;20084;-59
2023/12/05 03:29:18;;;;;;;21.50;13.43;;;;;;;;;;4997892;28;20041;-59
2023/12/05 03:31:44;;;;;;;20.27;12.95;;;;;;;;;;4997525;28;20041;-59
2023/12/05 03:34:10;;;;;;;19.85;12.20;;;;;;;;;;4994018;28;20045;-59
2023/12/05 03:36:36;;;;;;;21.67;13.68;;;;;;;;;;4995887;28;20199;-60
2023/12/05 03:39:02;;;;;;;20.17;12.48;;;;;;;;;;4994455;28;20107;-59
2023/12/05 03:41:28;;;;;;;21.92;13.00;;;;;;;;;;4994819;28;20046;-59
2023/12/05 03:43:54;;;;;;;21.67;13.52;;;;;;;;;;4996027;28;20072;-59
2023/12/05 03:46:21;;;;;;;19.40;11.75;;;;;;;;;;5002280;28;20041;-59
2023/12/05 03:48:47;;;;;;;20.15;13.18;;;;;;;;;;4996237;28;20095;-59
2023/12/05 03:51:13;;;;;;;21.83;13.60;;;;;;;;;;4994414;28;20099;-59
2023/12/05 03:53:39;;;;;;;21.23;13.70;;;;;;;;;;4996083;28;20041;-59
2023/12/05 03:56:05;;;;;;;23.85;15.00;;;;;;;;;;4996387;28;20103;-59
2023/12/05 03:58:31;;;;;;;20.58;13.57;;;;;;;;;;5000497;28;20038;-59
2023/12/05 04:00:58;;;;;;;21.08;13.57;;;;;;;;;;5000522;28;20037;-59
2023/12/05 04:03:24;;;;;;;19.88;12.85;;;;;;;;;;4999495;28;20037;-59
2023/12/05 04:05:50;;;;;;;21.27;13.82;;;;;;;;;;5000263;28;20089;-59
2023/12/05 04:08:16;;;;;;;24.65;16.08;;;;;;;;;;4999787;28;20034;-59
2023/12/05 04:10:42;;;;;;;22.17;14.43;;;;;;;;;;4999515;28;20049;-59
2023/12/05 04:13:08;;;;;;;27.75;13.98;;;;;;;;;;5000664;28;20077;-59
2023/12/05 04:15:34;;;;;;;24.58;14.73;;;;;;;;;;5000581;28;20232;-59
2023/12/05 04:18:00;;;;;;;21.25;13.73;;;;;;;;;;4999890;28;20146;-58
2023/12/05 04:20:27;;;;;;;23.73;14.52;;;;;;;;;;4998864;28;20048;-58
2023/12/05 04:22:53;;;;;;;23.48;13.95;;;;;;;;;;4998945;28;20084;-59
2023/12/05 04:25:19;;;;;;;22.85;15.00;;;;;;;;;;4999742;28;21486;-58
2023/12/05 04:27:45;;;;;;;25.17;14.55;;;;;;;;;;5000713;28;20108;-58
2023/12/05 04:30:11;;;;;;;24.25;14.70;;;;;;;;;;4999419;28;20874;-58
2023/12/05 04:32:37;;;;;;;23.52;14.32;;;;;;;;;;5001002;28;20037;-58
2023/12/05 04:35:03;;;;;;;24.48;15.13;;;;;;;;;;4999026;28;20134;-58
2023/12/05 04:37:29;;;;;;;25.40;14.20;;;;;;;;;;4998095;28;20734;-58
2023/12/05 04:39:55;;;;;;;23.63;13.77;;;;;;;;;;4999552;28;20072;-58
2023/12/05 04:42:21;;;;;;;24.50;15.18;;;;;;;;;;4998917;28;20084;-58
2023/12/05 04:44:47;;;;;;;21.02;13.93;;;;;;;;;;5000195;28;20038;-58
2023/12/05 04:47:13;;;;;;;22.48;14.63;;;;;;;;;;5000712;28;20037;-58
2023/12/05 04:49:40;;;;;;;22.92;15.23;;;;;;;;;;4999391;28;20489;-58
2023/12/05 04:52:06;;;;;;;22.13;13.98;;;;;;;;;;4998370;28;20057;-58
2023/12/05 04:54:32;;;;;;;23.70;15.00;;;;;;;;;;4997602;28;20046;-58
2023/12/05 04:56:58;;;;;;;21.98;14.90;;;;;;;;;;4999285;28;20037;-58
2023/12/05 04:59:24;;;;;;;24.13;14.07;;;;;;;;;;4998122;28;20729;-58
2023/12/05 05:01:50;;;;;;;24.02;15.27;;;;;;;;;;4998318;28;20084;-58
2023/12/05 05:04:17;;;;;;;23.00;14.77;;;;;;;;;;4999012;28;20148;-58
2023/12/05 05:06:43;;;;;;;22.33;14.25;;;;;;;;;;4998738;28;20145;-58
2023/12/05 05:09:09;;;;;;;24.85;15.55;;;;;;;;;;4995786;28;20120;-58
2023/12/05 05:11:35;;;;;;;23.77;15.32;;;;;;;;;;4998090;28;20122;-58
2023/12/05 05:14:01;;;;;;;23.55;14.82;;;;;;;;;;4999122;28;20484;-58
2023/12/05 05:16:27;;;;;;;21.92;14.02;;;;;;;;;;5000130;28;20107;-58
2023/12/05 05:18:53;;;;;;;23.23;13.90;;;;;;;;;;4998917;28;20591;-58
2023/12/05 05:21:19;;;;;;;23.20;14.43;;;;;;;;;;4998360;28;20037;-58
2023/12/05 05:23:45;;;;;;;20.55;13.30;;;;;;;;;;4998429;28;20056;-58
2023/12/05 05:26:12;;;;;;;23.17;14.00;;;;;;;;;;5003508;28;20041;-59
2023/12/05 05:28:38;;;;;;;22.63;14.30;;;;;;;;;;4999429;28;20463;-58
2023/12/05 05:31:04;;;;;;;21.75;14.48;;;;;;;;;;4999930;28;20507;-58
2023/12/05 05:33:30;;;;;;;22.98;13.85;;;;;;;;;;4998319;28;20096;-58
2023/12/05 05:35:56;;;;;;;22.17;14.10;;;;;;;;;;4997940;28;20040;-58
2023/12/05 05:38:22;;;;;;;24.67;14.88;;;;;;;;;;4997548;28;20029;-58
2023/12/05 05:40:48;;;;;;;22.27;13.27;;;;;;;;;;4997008;28;20103;-58
2023/12/05 05:43:14;;;;;;;25.20;15.48;;;;;;;;;;4997243;28;20050;-59
2023/12/05 05:45:40;;;;;;;23.20;13.88;;;;;;;;;;4999504;28;20033;-59
2023/12/05 05:48:06;;;;;;;23.23;13.77;;;;;;;;;;4998549;28;20038;-58
2023/12/05 05:50:32;;;;;;;23.27;14.85;;;;;;;;;;4998670;28;20044;-59
2023/12/05 05:52:59;;;;;;;19.75;13.13;;;;;;;;;;4998472;28;20029;-59
2023/12/05 05:55:26;;;;;;;24.90;14.05;;;;;;;;;;4997974;28;21233;-59
2023/12/05 05:57:53;;;;;;;23.38;14.82;;;;;;;;;;4997818;28;20051;-59
2023/12/05 06:00:19;;;;;;;22.55;13.73;;;;;;;;;;4998197;28;20042;-59
2023/12/05 06:02:45;;;;;;;20.50;12.98;;;;;;;;;;4996422;28;20041;-59
2023/12/05 06:05:11;;;;;;;22.27;14.68;;;;;;;;;;4997282;28;20732;-59
2023/12/05 06:07:37;;;;;;;23.88;14.32;;;;;;;;;;4999098;28;20029;-59
2023/12/05 06:10:04;;;;;;;24.63;14.10;;;;;;;;;;4998625;28;21439;-58
2023/12/05 06:12:32;;;;;;;24.13;14.55;;;;;;;;;;4998387;28;20107;-59
2023/12/05 06:14:58;;;;;;;23.45;13.82;;;;;;;;;;4997207;28;20101;-59
2023/12/05 06:17:24;;;;;;;22.10;13.73;;;;;;;;;;4996609;28;20037;-58
2023/12/05 06:19:50;;;;;;;23.48;15.15;;;;;;;;;;4997769;28;20268;-58
2023/12/05 06:22:16;;;;;;;22.60;14.23;;;;;;;;;;4997061;28;20120;-59
2023/12/05 06:24:42;;;;;;;23.85;14.50;;;;;;;;;;4998801;28;20037;-59
2023/12/05 06:27:08;;;;;;;24.13;14.98;;;;;;;;;;4998047;28;20084;-58
2023/12/05 06:29:34;;;;;;;26.73;15.43;;;;;;;;;;4998612;28;20044;-58
2023/12/05 06:32:00;;;;;;;23.55;14.75;;;;;;;;;;4997501;28;20037;-58
2023/12/05 06:34:27;;;;;;;23.45;14.45;;;;;;;;;;4998726;28;20034;-58
2023/12/05 06:36:53;;;;;;;21.23;13.57;;;;;;;;;;4997469;28;20044;-59
2023/12/05 06:39:19;;;;;;;23.55;14.25;;;;;;;;;;4998589;28;20037;-59
2023/12/05 06:41:46;;;;;;;24.92;15.07;;;;;;;;;;4997692;28;20932;-58
2023/12/05 06:44:12;;;;;;;22.83;13.70;;;;;;;;;;4996397;28;20092;-58
2023/12/05 06:46:38;;;;;;;23.63;14.60;;;;;;;;;;4998061;28;20037;-58
2023/12/05 06:49:04;;;;;;;24.67;14.88;;;;;;;;;;4996878;28;20045;-59
2023/12/05 06:51:30;;;;;;;22.52;14.45;;;;;;;;;;4998079;28;20045;-58
2023/12/05 06:53:56;;;;;;;25.08;15.05;;;;;;;;;;4997042;28;20037;-58
2023/12/05 06:56:22;;;;;;;26.10;16.13;;;;;;;;;;4997694;28;20116;-58
2023/12/05 06:58:48;;;;;;;23.30;14.38;;;;;;;;;;4998227;28;20080;-58
2023/12/05 07:01:14;;;;;;;25.08;16.10;;;;;;;;;;4996803;28;20037;-58
2023/12/05 07:03:40;;;;;;;25.20;15.52;;;;;;;;;;4998170;28;20087;-58
2023/12/05 07:06:06;;;;;;;26.02;16.73;;;;;;;;;;4996207;28;20029;-58
2023/12/05 07:08:32;;;;;;;27.67;15.95;;;;;;;;;;4997372;28;20040;-58
2023/12/05 07:11:01;;;;;;;26.45;15.13;;;;;;;;;;4997587;28;20030;-58
2023/12/05 07:13:27;;;;;;;24.52;15.70;;;;;;;;;;4997278;28;20043;-58
2023/12/05 07:15:53;;;;;;;24.33;15.98;;;;;;;;;;4996995;28;20038;-58
2023/12/05 07:18:19;;;;;;;24.67;15.02;;;;;;;;;;4997285;28;20041;-58
2023/12/05 07:20:45;;;;;;;23.25;15.18;;;;;;;;;;4996773;28;20036;-58
2023/12/05 07:23:11;;;;;;;27.05;16.63;;;;;;;;;;4997321;28;20038;-57
2023/12/05 07:25:37;;;;;;;24.10;14.98;;;;;;;;;;4997396;28;20064;-58
2023/12/05 07:28:03;;;;;;;25.40;15.32;;;;;;;;;;4996800;28;20049;-58
2023/12/05 07:30:29;;;;;;;24.73;14.95;;;;;;;;;;4994372;28;20029;-58
2023/12/05 07:32:55;;;;;;;25.23;15.57;;;;;;;;;;4996740;28;20074;-58
2023/12/05 07:35:21;;;;;;;25.92;16.38;;;;;;;;;;4996059;28;20481;-58
2023/12/05 07:37:47;;;;;;;28.75;17.83;;;;;;;;;;4994452;28;21265;-58
2023/12/05 07:40:13;;;;;;;27.45;18.00;;;;;;;;;;4995372;28;21816;-58
2023/12/05 07:42:41;;;;;;;27.25;17.10;;;;;;;;;;4993164;28;20798;-58
2023/12/05 07:45:07;;;;;;;27.42;17.98;;;;;;;;;;4994226;28;20049;-58
2023/12/05 07:47:34;;;;;;;27.77;16.73;;;;;;;;;;4994982;28;20041;-58
2023/12/05 07:50:00;;;;;;;29.27;17.33;;;;;;;;;;4993230;28;20048;-58
2023/12/05 07:52:26;;;;;;;27.80;16.77;;;;;;;;;;4994991;28;20038;-58
2023/12/05 07:54:52;;;;;;;28.05;16.02;;;;;;;;;;4995678;28;20065;-58
2023/12/05 07:57:22;;;;;;;27.98;15.70;;;;;;;;;;4996271;28;20061;-58
2023/12/05 07:59:48;;;;;;;28.90;18.10;;;;;;;;;;4995552;28;20038;-58
2023/12/05 08:02:15;;;;;;;28.75;16.05;;;;;;;;;;4997193;28;20800;-58
2023/12/05 08:04:41;;;;;;;26.02;16.00;;;;;;;;;;4997329;28;20038;-58
2023/12/05 08:07:08;;;;;;;28.20;17.25;;;;;;;;;;4997404;28;20092;-58
2023/12/05 08:09:34;;;;;;;26.35;16.90;;;;;;;;;;4995672;28;20056;-57
2023/12/05 08:12:00;;;;;;;28.25;16.60;;;;;;;;;;4996349;28;20041;-58
2023/12/05 08:14:26;;;;;;;24.55;15.60;;;;;;;;;;4997037;28;20147;-58
2023/12/05 08:16:52;;;;;;;30.10;17.20;;;;;;;;;;4995823;28;20034;-58
2023/12/05 08:19:18;;;;;;;26.45;16.08;;;;;;;;;;4984832;28;20200;-58
2023/12/05 08:21:44;;;;;;;26.08;15.63;;;;;;;;;;4987551;28;20129;-58
2023/12/05 08:24:10;;;;;;;26.42;16.42;;;;;;;;;;4985903;28;20040;-58
2023/12/05 08:26:37;;;;;;;25.35;16.90;;;;;;;;;;4985554;28;20033;-59
2023/12/05 08:29:03;;;;;;;26.08;16.13;;;;;;;;;;4984242;28;20109;-58
2023/12/05 08:31:29;;;;;;;24.88;15.48;;;;;;;;;;4985002;28;20437;-58
2023/12/05 08:33:55;;;;;;;26.42;16.52;;;;;;;;;;4987838;28;20116;-59
2023/12/05 08:36:21;;;;;;;22.42;14.80;;;;;;;;;;4987909;28;20053;-59
2023/12/05 08:38:47;;;;;;;24.80;16.25;;;;;;;;;;4988115;28;20096;-59
2023/12/05 08:41:22;;;;;;;28.13;17.13;;;;;;;;;;4988556;28;20033;-59
2023/12/05 08:43:48;;;;;;;25.25;16.23;;;;;;;;;;4988817;28;20053;-58
2023/12/05 08:46:14;;;;;;;25.75;15.48;;;;;;;;;;4991656;28;20164;-59
2023/12/05 08:48:40;;;;;;;24.52;15.15;;;;;;;;;;4992622;28;20038;-59
2023/12/05 08:51:07;;;;;;;25.58;15.55;;;;;;;;;;4991437;28;20575;-59
2023/12/05 08:53:33;;;;;;;26.45;15.73;;;;;;;;;;4992247;28;20046;-59
2023/12/05 08:55:59;;;;;;;25.52;15.52;;;;;;;;;;4993297;28;20064;-59
2023/12/05 08:58:25;;;;;;;24.98;14.38;;;;;;;;;;4976784;28;20052;-59
2023/12/05 09:00:51;;;;;;;22.38;14.48;;;;;;;;;;4986308;28;20045;-59
2023/12/05 09:03:18;;;;;;;25.75;15.82;;;;;;;;;;4991197;28;20042;-59
2023/12/05 09:05:45;;;;;;;24.90;15.60;;;;;;;;;;4990930;28;20690;-60
2023/12/05 09:08:11;;;;;;;22.95;15.38;;;;;;;;;;4991723;28;20033;-59
2023/12/05 09:10:37;;;;;;;22.88;14.60;;;;;;;;;;4993167;28;20129;-59
2023/12/05 09:13:03;;;;;;;27.70;15.88;;;;;;;;;;4992858;28;20065;-59
2023/12/05 09:15:29;;;;;;;25.00;15.27;;;;;;;;;;4992060;28;20041;-60
2023/12/05 09:17:56;;;;;;;23.50;14.63;;;;;;;;;;4992939;28;20436;-59
2023/12/05 09:20:22;;;;;;;24.92;15.00;;;;;;;;;;4991681;28;20041;-59
2023/12/05 09:22:48;;;;;;;24.20;15.40;;;;;;;;;;4992715;28;20045;-60
2023/12/05 09:25:14;;;;;;;25.73;15.52;;;;;;;;;;4992752;28;20041;-60
2023/12/05 09:27:40;;;;;;;24.70;14.40;;;;;;;;;;4991691;28;20083;-60
2023/12/05 09:30:06;;;;;;;24.38;15.40;;;;;;;;;;4995560;28;20221;-59
2023/12/05 09:32:32;;;;;;;23.02;16.20;;;;;;;;;;4999893;28;20033;-59
2023/12/05 09:34:58;;;;;;;25.08;15.20;;;;;;;;;;4999923;28;20087;-59
2023/12/05 09:37:24;;;;;;;23.42;14.75;;;;;;;;;;4999213;28;20037;-59
2023/12/05 09:39:50;;;;;;;27.35;15.25;;;;;;;;;;4999726;28;20076;-59
2023/12/05 09:42:19;;;;;;;25.17;15.00;;;;;;;;;;5000335;28;20075;-59
2023/12/05 09:44:46;;;;;;;24.67;14.93;;;;;;;;;;5000820;28;20045;-60
2023/12/05 09:47:16;;;;;;;24.25;14.52;;;;;;;;;;5000488;28;20040;-59
2023/12/05 09:49:42;;;;;;;20.67;13.35;;;;;;;;;;5000030;28;20057;-59
2023/12/05 09:52:09;;;;;;;24.25;15.15;;;;;;;;;;5000914;28;20060;-59
2023/12/05 09:54:35;;;;;;;25.05;14.63;;;;;;;;;;5000141;28;20067;-59
2023/12/05 09:57:02;;;;;;;24.23;14.55;;;;;;;;;;5000231;28;20960;-59
2023/12/05 09:59:28;;;;;;;24.50;16.02;;;;;;;;;;4999998;28;20045;-59
2023/12/05 10:01:56;;;;;;;24.38;15.07;;;;;;;;;;5000029;28;20382;-59
2023/12/05 10:04:23;;;;;;;23.70;15.57;;;;;;;;;;4999808;28;20056;-60
2023/12/05 10:06:49;;;;;;;23.60;14.85;;;;;;;;;;4999616;28;20044;-60
2023/12/05 10:09:20;;;;;;;24.90;15.02;;;;;;;;;;4999729;28;20477;-59
2023/12/05 10:11:46;;;;;;;25.40;15.95;;;;;;;;;;5000448;28;20049;-59
2023/12/05 10:14:12;;;;;;;25.35;15.68;;;;;;;;;;5000539;28;20057;-60
2023/12/05 10:16:39;;;;;;;24.35;15.10;;;;;;;;;;5000614;28;20068;-59
2023/12/05 10:19:05;;;;;;;23.90;15.50;;;;;;;;;;5000078;28;20044;-59
2023/12/05 10:21:31;;;;;;;25.27;15.70;;;;;;;;;;5000022;28;20049;-59
2023/12/05 10:23:57;;;;;;;26.63;15.98;;;;;;;;;;4999852;28;20034;-59
2023/12/05 10:26:23;;;;;;;25.35;15.82;;;;;;;;;;5000207;28;20117;-59
2023/12/05 10:28:50;;;;;;;23.17;14.43;;;;;;;;;;4999502;28;20121;-60
2023/12/05 10:31:17;;;;;;;28.20;16.00;;;;;;;;;;5000075;28;20026;-59
2023/12/05 10:33:43;;;;;;;24.05;15.23;;;;;;;;;;4999969;28;20030;-59
2023/12/05 10:36:13;;;;;;;27.05;16.25;;;;;;;;;;5000111;28;20404;-60
2023/12/05 10:38:42;;;;;;;26.02;16.58;;;;;;;;;;4999871;28;20033;-60
2023/12/05 10:41:08;;;;;;;26.63;16.55;;;;;;;;;;4999664;28;20389;-59
2023/12/05 10:43:34;;;;;;;26.27;16.80;;;;;;;;;;4999702;28;21909;-60
2023/12/05 10:46:03;;;;;;;28.38;17.08;;;;;;;;;;4999197;28;21230;-60
2023/12/05 10:48:30;;;;;;;25.40;15.88;;;;;;;;;;4999653;28;20491;-60
2023/12/05 10:50:58;;;;;;;25.15;15.30;;;;;;;;;;4999006;28;20045;-60
2023/12/05 10:53:26;;;;;;;24.48;15.20;;;;;;;;;;4999062;28;20133;-60
2023/12/05 10:55:52;;;;;;;27.42;16.45;;;;;;;;;;4999510;28;20117;-59
2023/12/05 10:58:18;;;;;;;24.10;14.88;;;;;;;;;;4999436;28;20060;-60
2023/12/05 11:00:45;;;;;;;27.17;16.67;;;;;;;;;;4999528;28;20037;-60
2023/12/05 11:03:14;;;;;;;30.58;17.23;;;;;;;;;;4998828;28;20041;-60
2023/12/05 11:05:40;;;;;;;25.33;16.00;;;;;;;;;;4999482;28;20048;-60
2023/12/05 11:08:06;;;;;;;25.55;15.73;;;;;;;;;;4998374;28;20025;-60
2023/12/05 11:10:32;;;;;;;26.52;17.08;;;;;;;;;;4999111;28;20029;-60
2023/12/05 11:13:02;;;;;;;24.08;15.68;;;;;;;;;;4999305;28;20033;-59
2023/12/05 11:15:39;;;;;;;30.58;17.65;;;;;;;;;;4997748;28;20040;-59
2023/12/05 11:18:11;;;;;;;26.98;15.70;;;;;;;;;;4998831;28;20037;-59
2023/12/05 11:20:40;;;;;;;27.33;16.75;;;;;;;;;;4998691;28;20053;-59
2023/12/05 11:23:25;;;;;;;28.00;17.15;;;;;;;;;;4998816;28;20037;-59
2023/12/05 11:25:51;;;;;;;28.55;17.77;;;;;;;;;;4999012;28;21919;-59
2023/12/05 11:28:26;;;;;;;25.20;16.55;;;;;;;;;;4998647;28;20589;-59
2023/12/05 11:31:04;;;;;;;27.90;16.65;;;;;;;;;;4998853;28;20037;-59
2023/12/05 11:33:46;;;;;;;27.50;15.57;;;;;;;;;;4998603;28;20037;-59
2023/12/05 11:36:12;;;;;;;25.83;16.42;;;;;;;;;;4999332;28;20041;-59
2023/12/05 11:38:38;;;;;;;26.75;16.17;;;;;;;;;;4998392;28;21017;-58
2023/12/05 11:41:17;;;;;;;26.35;15.82;;;;;;;;;;4998949;28;20447;-58
2023/12/05 11:43:43;;;;;;;26.80;16.50;;;;;;;;;;4998747;28;20160;-58
2023/12/05 11:46:10;;;;;;;26.75;16.50;;;;;;;;;;4998354;28;20654;-58
2023/12/05 11:48:36;;;;;;;27.65;16.83;;;;;;;;;;4999111;28;20032;-59
2023/12/05 11:51:02;;;;;;;27.58;17.02;;;;;;;;;;4998306;28;20067;-58
2023/12/05 11:53:29;;;;;;;25.98;15.65;;;;;;;;;;4998726;28;20029;-58
2023/12/05 11:55:55;;;;;;;29.63;17.25;;;;;;;;;;4998995;28;20079;-58
2023/12/05 11:58:31;;;;;;;30.23;17.63;;;;;;;;;;4998048;28;20037;-58
2023/12/05 12:01:04;;;;;;;27.58;16.50;;;;;;;;;;4998204;28;20049;-58
2023/12/05 12:03:48;;;;;;;29.20;17.17;;;;;;;;;;4996587;28;20057;-59
2023/12/05 12:06:32;;;;;;;30.30;17.50;;;;;;;;;;4998059;28;20993;-58
2023/12/05 12:08:59;;;;;;;;;;;;;;;;;;4998959;28;20080;-58
2023/12/05 12:11:25;;;;;;;25.20;15.38;;;;;;;;;;4998734;28;19962;-59
2023/12/05 12:13:51;;;;;;;26.73;15.60;;;;;;;;;;4997915;28;20042;-59
2023/12/05 12:16:18;;;;;;;29.05;17.70;;;;;;;;;;4998556;28;20068;-59
2023/12/05 12:18:44;;;;;;;27.75;16.58;;;;;;;;;;4999589;28;20038;-59
2023/12/05 12:21:10;;;;;;;27.83;17.98;;;;;;;;;;5002681;28;20045;-59
2023/12/05 12:23:37;;;;;;;26.15;16.10;;;;;;;;;;5001879;28;20033;-59
2023/12/05 12:26:03;;;;;;;27.63;17.60;;;;;;;;;;5002578;28;20049;-59
2023/12/05 12:28:33;;;;;;;29.35;18.10;;;;;;;;;;5002139;28;20037;-59
2023/12/05 12:30:59;;;;;;;33.20;18.58;;;;;;;;;;5002448;28;20053;-59
2023/12/05 12:33:38;;;;;;;28.63;18.17;;;;;;;;;;5001603;28;20119;-59
2023/12/05 12:36:05;;;;;;;29.30;18.20;;;;;;;;;;5002043;28;20033;-59
2023/12/05 12:38:35;;;;;;;30.17;17.77;;;;;;;;;;5001851;28;20045;-59
2023/12/05 12:41:02;;;;;;;32.53;17.42;;;;;;;;;;5001386;28;20040;-58
2023/12/05 12:43:29;;;;;;;27.60;16.80;;;;;;;;;;5000026;28;20066;-58
2023/12/05 12:45:55;;;;;;;30.35;18.00;;;;;;;;;;5001689;28;20025;-59
2023/12/05 12:48:21;;;;;;;30.05;17.52;;;;;;;;;;5002015;28;20402;-59
2023/12/05 12:50:47;;;;;;;31.73;18.35;;;;;;;;;;5001360;28;21288;-59
2023/12/05 12:53:13;;;;;;;29.75;17.13;;;;;;;;;;5001882;28;20038;-58
2023/12/05 12:55:39;;;;;;;30.73;17.90;;;;;;;;;;5001005;28;20044;-58
2023/12/05 12:58:06;;;;;;;30.63;19.17;;;;;;;;;;5002017;28;20157;-59
2023/12/05 13:00:36;;;;;;;33.25;18.65;;;;;;;;;;5001682;28;20045;-58
2023/12/05 13:03:02;;;;;;;33.95;18.65;;;;;;;;;;5002017;28;20120;-59
2023/12/05 13:05:35;;;;;;;31.45;19.30;;;;;;;;;;5001561;28;20025;-58
2023/12/05 13:08:03;;;;;;;32.22;20.15;;;;;;;;;;5001560;28;20030;-59
2023/12/05 13:10:30;;;;;;;32.53;19.55;;;;;;;;;;5002084;28;20168;-58
2023/12/05 13:12:58;;;;;;;32.03;19.58;;;;;;;;;;5000861;28;20038;-58
2023/12/05 13:15:28;;;;;;;35.92;20.25;;;;;;;;;;5001280;28;20061;-59
2023/12/05 13:17:56;;;;;;;35.80;19.85;;;;;;;;;;5000080;28;20029;-59
2023/12/05 13:20:23;;;;;;;35.28;19.52;;;;;;;;;;5000725;28;20048;-58
2023/12/05 13:22:49;;;;;;;31.83;19.77;;;;;;;;;;5001268;28;20080;-58
2023/12/05 13:25:15;;;;;;;30.40;18.42;;;;;;;;;;5001163;28;20045;-58
2023/12/05 13:27:41;;;;;;;32.40;18.80;;;;;;;;;;4999073;28;20041;-59
2023/12/05 13:30:07;;;;;;;36.30;20.80;;;;;;;;;;4999820;28;20478;-59
2023/12/05 13:32:34;;;;;;;33.83;19.02;;;;;;;;;;5000391;28;20044;-59
2023/12/05 13:35:00;;;;;;;35.25;20.20;;;;;;;;;;5000354;28;20034;-59
2023/12/05 13:37:26;;;;;;;31.77;19.58;;;;;;;;;;4999577;28;20133;-59
2023/12/05 13:39:52;;;;;;;34.80;19.90;;;;;;;;;;4999345;28;20088;-59
2023/12/05 13:42:18;;;;;;;34.80;19.98;;;;;;;;;;4999809;28;20045;-58
2023/12/05 13:44:44;;;;;;;34.15;20.40;;;;;;;;;;5000778;28;20037;-59
2023/12/05 13:47:11;;;;;;;31.63;19.15;;;;;;;;;;5001082;28;20041;-58
2023/12/05 13:49:37;;;;;;;35.55;20.67;;;;;;;;;;4998367;28;20033;-59
2023/12/05 13:52:03;;;;;;;31.23;19.30;;;;;;;;;;5000998;28;20513;-58
2023/12/05 13:54:29;;;;;;;35.55;21.55;;;;;;;;;;5000787;28;20870;-58
2023/12/05 13:56:56;;;;;;;34.25;20.50;;;;;;;;;;5000781;28;20112;-58
2023/12/05 13:59:22;;;;;;;34.30;19.63;;;;;;;;;;5000151;28;20140;-58
2023/12/05 14:01:48;;;;;;;32.42;19.60;;;;;;;;;;5004552;28;20037;-58
2023/12/05 14:04:18;;;;;;;32.05;18.83;;;;;;;;;;5015231;28;20129;-59
2023/12/05 14:06:44;;;;;;;37.10;21.65;;;;;;;;;;5000390;28;20175;-58
2023/12/05 14:09:11;;;;;;;33.67;19.92;;;;;;;;;;5000531;28;20030;-58
2023/12/05 14:11:38;;;;;;;33.42;20.25;;;;;;;;;;5000166;28;20033;-58
2023/12/05 14:14:05;;;;;;;39.17;21.73;;;;;;;;;;5000563;28;20042;-59
2023/12/05 14:16:34;;;;;;;33.42;19.85;;;;;;;;;;4999624;28;20040;-58